sensor_id;sensor_type;location;lat;lon;timestamp;P1;durP1;ratioP1;P2;durP2;ratioP2
39218;SDS011;24934;52.752;6.964;2022-12-29T00:01:34;17.90;;;16.27;;
39218;SDS011;24934;52.752;6.964;2022-12-29T00:04:01;15.70;;;14.43;;
39218;SDS011;24934;52.752;6.964;2022-12-29T00:06:27;16.47;;;15.07;;
39218;SDS011;24934;52.752;6.964;2022-12-29T00:08:55;15.93;;;14.63;;
39218;SDS011;24934;52.752;6.964;2022-12-29T00:11:22;15.60;;;14.30;;
39218;SDS011;24934;52.752;6.964;2022-12-29T00:13:50;15.27;;;14.07;;
39218;SDS011;24934;52.752;6.964;2022-12-29T00:16:37;15.57;;;14.37;;
39218;SDS011;24934;52.752;6.964;2022-12-29T00:19:05;16.17;;;14.77;;
39218;SDS011;24934;52.752;6.964;2022-12-29T00:21:31;15.60;;;14.30;;
39218;SDS011;24934;52.752;6.964;2022-12-29T00:24:19;15.93;;;14.53;;
39218;SDS011;24934;52.752;6.964;2022-12-29T00:29:49;15.70;;;14.50;;
39218;SDS011;24934;52.752;6.964;2022-12-29T00:32:33;15.60;;;14.40;;
39218;SDS011;24934;52.752;6.964;2022-12-29T00:35:28;16.20;;;14.90;;
39218;SDS011;24934;52.752;6.964;2022-12-29T00:37:55;16.20;;;14.80;;
39218;SDS011;24934;52.752;6.964;2022-12-29T00:40:42;15.50;;;14.30;;
39218;SDS011;24934;52.752;6.964;2022-12-29T00:43:29;16.63;;;15.23;;
39218;SDS011;24934;52.752;6.964;2022-12-29T00:46:13;14.83;;;13.63;;
39218;SDS011;24934;52.752;6.964;2022-12-29T00:48:38;16.00;;;14.77;;
39218;SDS011;24934;52.752;6.964;2022-12-29T00:51:22;15.27;;;14.17;;
39218;SDS011;24934;52.752;6.964;2022-12-29T00:53:50;15.83;;;14.47;;
39218;SDS011;24934;52.752;6.964;2022-12-29T00:56:16;15.00;;;13.80;;
39218;SDS011;24934;52.752;6.964;2022-12-29T00:58:42;15.30;;;14.07;;
39218;SDS011;24934;52.752;6.964;2022-12-29T01:01:08;15.80;;;14.53;;
39218;SDS011;24934;52.752;6.964;2022-12-29T01:03:34;15.80;;;14.20;;
39218;SDS011;24934;52.752;6.964;2022-12-29T01:06:02;15.60;;;14.30;;
39218;SDS011;24934;52.752;6.964;2022-12-29T01:08:29;15.47;;;14.10;;
39218;SDS011;24934;52.752;6.964;2022-12-29T01:10:58;15.30;;;14.00;;
39218;SDS011;24934;52.752;6.964;2022-12-29T01:13:25;15.60;;;14.40;;
39218;SDS011;24934;52.752;6.964;2022-12-29T01:15:51;15.30;;;14.20;;
39218;SDS011;24934;52.752;6.964;2022-12-29T01:18:16;15.50;;;14.30;;
39218;SDS011;24934;52.752;6.964;2022-12-29T01:20:42;15.50;;;14.30;;
39218;SDS011;24934;52.752;6.964;2022-12-29T01:23:09;15.37;;;14.07;;
39218;SDS011;24934;52.752;6.964;2022-12-29T01:25:34;14.30;;;13.20;;
39218;SDS011;24934;52.752;6.964;2022-12-29T01:28:00;14.73;;;13.50;;
39218;SDS011;24934;52.752;6.964;2022-12-29T01:30:26;14.70;;;13.50;;
39218;SDS011;24934;52.752;6.964;2022-12-29T01:32:51;14.00;;;13.00;;
39218;SDS011;24934;52.752;6.964;2022-12-29T01:35:17;14.47;;;13.17;;
39218;SDS011;24934;52.752;6.964;2022-12-29T01:37:42;13.90;;;12.70;;
39218;SDS011;24934;52.752;6.964;2022-12-29T01:40:08;13.50;;;12.50;;
39218;SDS011;24934;52.752;6.964;2022-12-29T01:42:34;13.60;;;12.50;;
39218;SDS011;24934;52.752;6.964;2022-12-29T01:45:07;13.33;;;12.20;;
39218;SDS011;24934;52.752;6.964;2022-12-29T01:47:36;14.17;;;13.07;;
39218;SDS011;24934;52.752;6.964;2022-12-29T01:50:14;13.50;;;12.50;;
39218;SDS011;24934;52.752;6.964;2022-12-29T01:53:08;14.07;;;12.97;;
39218;SDS011;24934;52.752;6.964;2022-12-29T01:55:56;13.47;;;12.57;;
39218;SDS011;24934;52.752;6.964;2022-12-29T01:58:27;14.13;;;12.90;;
39218;SDS011;24934;52.752;6.964;2022-12-29T02:00:58;13.07;;;12.17;;
39218;SDS011;24934;52.752;6.964;2022-12-29T02:03:25;13.40;;;12.40;;
39218;SDS011;24934;52.752;6.964;2022-12-29T02:08:57;13.47;;;12.47;;
39218;SDS011;24934;52.752;6.964;2022-12-29T02:11:24;12.77;;;11.87;;
39218;SDS011;24934;52.752;6.964;2022-12-29T02:13:51;13.97;;;12.93;;
39218;SDS011;24934;52.752;6.964;2022-12-29T02:24:51;13.70;;;12.50;;
39218;SDS011;24934;52.752;6.964;2022-12-29T02:36:10;12.50;;;11.50;;
39218;SDS011;24934;52.752;6.964;2022-12-29T02:38:52;13.37;;;12.37;;
39218;SDS011;24934;52.752;6.964;2022-12-29T02:41:30;15.10;;;13.77;;
39218;SDS011;24934;52.752;6.964;2022-12-29T02:44:04;13.60;;;12.50;;
39218;SDS011;24934;52.752;6.964;2022-12-29T02:46:58;14.07;;;12.97;;
39218;SDS011;24934;52.752;6.964;2022-12-29T02:49:33;14.47;;;13.47;;
39218;SDS011;24934;52.752;6.964;2022-12-29T02:54:36;15.63;;;14.33;;
39218;SDS011;24934;52.752;6.964;2022-12-29T02:59:45;16.47;;;15.13;;
39218;SDS011;24934;52.752;6.964;2022-12-29T03:02:29;17.60;;;16.30;;
39218;SDS011;24934;52.752;6.964;2022-12-29T03:16:05;18.33;;;16.77;;
39218;SDS011;24934;52.752;6.964;2022-12-29T03:18:41;18.30;;;16.80;;
39218;SDS011;24934;52.752;6.964;2022-12-29T03:21:12;17.77;;;16.30;;
39218;SDS011;24934;52.752;6.964;2022-12-29T03:23:43;17.60;;;16.30;;
39218;SDS011;24934;52.752;6.964;2022-12-29T03:26:14;18.20;;;16.90;;
39218;SDS011;24934;52.752;6.964;2022-12-29T03:28:44;17.10;;;15.90;;
39218;SDS011;24934;52.752;6.964;2022-12-29T03:31:18;16.80;;;15.60;;
39218;SDS011;24934;52.752;6.964;2022-12-29T03:33:47;16.20;;;15.00;;
39218;SDS011;24934;52.752;6.964;2022-12-29T03:36:17;17.23;;;15.70;;
39218;SDS011;24934;52.752;6.964;2022-12-29T03:38:55;16.27;;;14.87;;
39218;SDS011;24934;52.752;6.964;2022-12-29T03:41:28;16.10;;;15.00;;
39218;SDS011;24934;52.752;6.964;2022-12-29T03:43:56;16.20;;;14.90;;
39218;SDS011;24934;52.752;6.964;2022-12-29T03:46:22;17.13;;;15.63;;
39218;SDS011;24934;52.752;6.964;2022-12-29T03:48:48;17.27;;;15.87;;
39218;SDS011;24934;52.752;6.964;2022-12-29T03:51:13;17.10;;;15.70;;
39218;SDS011;24934;52.752;6.964;2022-12-29T03:53:41;17.00;;;15.67;;
39218;SDS011;24934;52.752;6.964;2022-12-29T03:56:07;17.13;;;15.73;;
39218;SDS011;24934;52.752;6.964;2022-12-29T03:58:35;16.57;;;15.20;;
39218;SDS011;24934;52.752;6.964;2022-12-29T04:01:00;16.30;;;14.70;;
39218;SDS011;24934;52.752;6.964;2022-12-29T04:03:26;15.40;;;14.20;;
39218;SDS011;24934;52.752;6.964;2022-12-29T04:05:52;15.70;;;14.50;;
39218;SDS011;24934;52.752;6.964;2022-12-29T04:08:17;15.77;;;14.40;;
39218;SDS011;24934;52.752;6.964;2022-12-29T04:10:43;15.57;;;14.20;;
39218;SDS011;24934;52.752;6.964;2022-12-29T04:13:08;16.37;;;14.70;;
39218;SDS011;24934;52.752;6.964;2022-12-29T04:15:34;16.20;;;14.53;;
39218;SDS011;24934;52.752;6.964;2022-12-29T04:18:02;15.47;;;14.30;;
39218;SDS011;24934;52.752;6.964;2022-12-29T04:20:28;15.67;;;14.40;;
39218;SDS011;24934;52.752;6.964;2022-12-29T04:23:12;15.23;;;13.93;;
39218;SDS011;24934;52.752;6.964;2022-12-29T04:25:40;15.27;;;14.07;;
39218;SDS011;24934;52.752;6.964;2022-12-29T04:28:05;14.60;;;13.47;;
39218;SDS011;24934;52.752;6.964;2022-12-29T04:30:32;14.87;;;13.77;;
39218;SDS011;24934;52.752;6.964;2022-12-29T04:32:58;15.00;;;13.83;;
39218;SDS011;24934;52.752;6.964;2022-12-29T04:35:23;15.13;;;13.83;;
39218;SDS011;24934;52.752;6.964;2022-12-29T04:37:49;14.33;;;13.10;;
39218;SDS011;24934;52.752;6.964;2022-12-29T04:40:15;14.40;;;13.40;;
39218;SDS011;24934;52.752;6.964;2022-12-29T04:42:40;14.70;;;13.50;;
39218;SDS011;24934;52.752;6.964;2022-12-29T04:45:06;13.87;;;12.80;;
39218;SDS011;24934;52.752;6.964;2022-12-29T04:47:33;15.03;;;13.83;;
39218;SDS011;24934;52.752;6.964;2022-12-29T04:49:58;13.93;;;12.93;;
39218;SDS011;24934;52.752;6.964;2022-12-29T04:52:24;14.07;;;13.07;;
39218;SDS011;24934;52.752;6.964;2022-12-29T04:54:51;14.20;;;13.10;;
39218;SDS011;24934;52.752;6.964;2022-12-29T04:57:16;13.87;;;12.80;;
39218;SDS011;24934;52.752;6.964;2022-12-29T04:59:42;14.93;;;13.53;;
39218;SDS011;24934;52.752;6.964;2022-12-29T05:02:07;13.67;;;12.67;;
39218;SDS011;24934;52.752;6.964;2022-12-29T05:04:33;14.70;;;13.50;;
39218;SDS011;24934;52.752;6.964;2022-12-29T05:06:58;14.57;;;13.37;;
39218;SDS011;24934;52.752;6.964;2022-12-29T05:09:24;14.17;;;12.93;;
39218;SDS011;24934;52.752;6.964;2022-12-29T05:11:50;14.60;;;13.33;;
39218;SDS011;24934;52.752;6.964;2022-12-29T05:14:15;14.37;;;13.23;;
39218;SDS011;24934;52.752;6.964;2022-12-29T05:16:41;15.00;;;13.80;;
39218;SDS011;24934;52.752;6.964;2022-12-29T05:19:07;15.90;;;14.60;;
39218;SDS011;24934;52.752;6.964;2022-12-29T05:21:32;15.10;;;14.00;;
39218;SDS011;24934;52.752;6.964;2022-12-29T05:24:01;15.33;;;13.90;;
39218;SDS011;24934;52.752;6.964;2022-12-29T05:26:26;15.43;;;14.13;;
39218;SDS011;24934;52.752;6.964;2022-12-29T05:28:52;15.83;;;14.37;;
39218;SDS011;24934;52.752;6.964;2022-12-29T05:31:18;14.90;;;13.80;;
39218;SDS011;24934;52.752;6.964;2022-12-29T05:33:43;14.90;;;13.80;;
39218;SDS011;24934;52.752;6.964;2022-12-29T05:36:09;14.93;;;13.83;;
39218;SDS011;24934;52.752;6.964;2022-12-29T05:38:38;15.00;;;13.80;;
39218;SDS011;24934;52.752;6.964;2022-12-29T05:41:03;14.83;;;13.73;;
39218;SDS011;24934;52.752;6.964;2022-12-29T05:43:29;14.83;;;13.50;;
39218;SDS011;24934;52.752;6.964;2022-12-29T05:45:54;15.20;;;13.90;;
39218;SDS011;24934;52.752;6.964;2022-12-29T05:48:21;14.80;;;13.60;;
39218;SDS011;24934;52.752;6.964;2022-12-29T05:50:49;15.10;;;13.90;;
39218;SDS011;24934;52.752;6.964;2022-12-29T05:53:16;15.90;;;14.70;;
39218;SDS011;24934;52.752;6.964;2022-12-29T05:55:42;16.30;;;14.90;;
39218;SDS011;24934;52.752;6.964;2022-12-29T05:58:09;15.10;;;13.70;;
39218;SDS011;24934;52.752;6.964;2022-12-29T06:00:34;13.33;;;12.03;;
39218;SDS011;24934;52.752;6.964;2022-12-29T06:03:00;13.63;;;12.30;;
39218;SDS011;24934;52.752;6.964;2022-12-29T06:05:26;12.83;;;11.40;;
39218;SDS011;24934;52.752;6.964;2022-12-29T06:07:51;12.90;;;11.70;;
39218;SDS011;24934;52.752;6.964;2022-12-29T06:10:18;12.53;;;11.63;;
39218;SDS011;24934;52.752;6.964;2022-12-29T06:12:44;12.60;;;11.50;;
39218;SDS011;24934;52.752;6.964;2022-12-29T06:15:09;12.53;;;11.23;;
39218;SDS011;24934;52.752;6.964;2022-12-29T06:17:35;12.93;;;11.20;;
39218;SDS011;24934;52.752;6.964;2022-12-29T06:20:01;14.70;;;10.50;;
39218;SDS011;24934;52.752;6.964;2022-12-29T06:22:27;14.53;;;11.37;;
39218;SDS011;24934;52.752;6.964;2022-12-29T06:24:52;12.23;;;11.03;;
39218;SDS011;24934;52.752;6.964;2022-12-29T06:27:18;11.87;;;10.67;;
39218;SDS011;24934;52.752;6.964;2022-12-29T06:29:44;12.93;;;10.87;;
39218;SDS011;24934;52.752;6.964;2022-12-29T06:32:09;11.97;;;10.73;;
39218;SDS011;24934;52.752;6.964;2022-12-29T06:34:35;12.90;;;11.60;;
39218;SDS011;24934;52.752;6.964;2022-12-29T06:37:04;13.13;;;11.17;;
39218;SDS011;24934;52.752;6.964;2022-12-29T06:39:29;12.43;;;10.70;;
39218;SDS011;24934;52.752;6.964;2022-12-29T06:41:55;12.53;;;11.23;;
39218;SDS011;24934;52.752;6.964;2022-12-29T06:44:22;12.17;;;10.97;;
39218;SDS011;24934;52.752;6.964;2022-12-29T06:46:48;14.67;;;10.70;;
39218;SDS011;24934;52.752;6.964;2022-12-29T06:49:17;11.90;;;10.50;;
39218;SDS011;24934;52.752;6.964;2022-12-29T06:51:44;13.40;;;10.47;;
39218;SDS011;24934;52.752;6.964;2022-12-29T06:54:18;13.03;;;10.57;;
39218;SDS011;24934;52.752;6.964;2022-12-29T06:56:43;14.00;;;10.80;;
39218;SDS011;24934;52.752;6.964;2022-12-29T06:59:09;12.40;;;10.43;;
39218;SDS011;24934;52.752;6.964;2022-12-29T07:01:35;17.30;;;11.20;;
39218;SDS011;24934;52.752;6.964;2022-12-29T07:04:01;13.33;;;10.83;;
39218;SDS011;24934;52.752;6.964;2022-12-29T07:06:29;14.80;;;10.33;;
39218;SDS011;24934;52.752;6.964;2022-12-29T07:08:54;15.07;;;11.07;;
39218;SDS011;24934;52.752;6.964;2022-12-29T07:11:22;14.03;;;10.70;;
39218;SDS011;24934;52.752;6.964;2022-12-29T07:13:48;14.43;;;10.67;;
39218;SDS011;24934;52.752;6.964;2022-12-29T07:16:14;14.87;;;10.43;;
39218;SDS011;24934;52.752;6.964;2022-12-29T07:18:39;17.93;;;10.53;;
39218;SDS011;24934;52.752;6.964;2022-12-29T07:21:05;16.87;;;10.40;;
39218;SDS011;24934;52.752;6.964;2022-12-29T07:23:30;14.40;;;10.30;;
39218;SDS011;24934;52.752;6.964;2022-12-29T07:26:03;23.67;;;11.60;;
39218;SDS011;24934;52.752;6.964;2022-12-29T07:28:30;16.77;;;10.80;;
39218;SDS011;24934;52.752;6.964;2022-12-29T07:30:57;15.73;;;10.20;;
39218;SDS011;24934;52.752;6.964;2022-12-29T07:33:29;18.50;;;10.73;;
39218;SDS011;24934;52.752;6.964;2022-12-29T07:35:56;19.80;;;11.60;;
39218;SDS011;24934;52.752;6.964;2022-12-29T07:38:22;15.87;;;11.40;;
39218;SDS011;24934;52.752;6.964;2022-12-29T07:40:50;18.07;;;11.63;;
39218;SDS011;24934;52.752;6.964;2022-12-29T07:43:21;15.43;;;11.20;;
39218;SDS011;24934;52.752;6.964;2022-12-29T07:45:47;13.70;;;11.40;;
39218;SDS011;24934;52.752;6.964;2022-12-29T07:48:13;17.60;;;11.40;;
39218;SDS011;24934;52.752;6.964;2022-12-29T07:50:38;13.30;;;11.87;;
39218;SDS011;24934;52.752;6.964;2022-12-29T07:53:04;14.83;;;11.60;;
39218;SDS011;24934;52.752;6.964;2022-12-29T07:55:30;17.90;;;11.73;;
39218;SDS011;24934;52.752;6.964;2022-12-29T07:57:56;15.57;;;11.70;;
39218;SDS011;24934;52.752;6.964;2022-12-29T08:00:21;13.37;;;11.60;;
39218;SDS011;24934;52.752;6.964;2022-12-29T08:02:47;14.23;;;11.70;;
39218;SDS011;24934;52.752;6.964;2022-12-29T08:05:13;15.33;;;11.33;;
39218;SDS011;24934;52.752;6.964;2022-12-29T08:07:40;13.13;;;11.00;;
39218;SDS011;24934;52.752;6.964;2022-12-29T08:10:08;11.80;;;10.53;;
39218;SDS011;24934;52.752;6.964;2022-12-29T08:12:34;13.67;;;11.33;;
39218;SDS011;24934;52.752;6.964;2022-12-29T08:15:00;13.77;;;10.90;;
39218;SDS011;24934;52.752;6.964;2022-12-29T08:17:26;15.20;;;11.40;;
39218;SDS011;24934;52.752;6.964;2022-12-29T08:19:51;12.40;;;10.40;;
39218;SDS011;24934;52.752;6.964;2022-12-29T08:22:17;13.33;;;10.33;;
39218;SDS011;24934;52.752;6.964;2022-12-29T08:24:42;15.53;;;10.93;;
39218;SDS011;24934;52.752;6.964;2022-12-29T08:27:10;14.63;;;11.37;;
39218;SDS011;24934;52.752;6.964;2022-12-29T08:29:36;14.73;;;11.00;;
39218;SDS011;24934;52.752;6.964;2022-12-29T08:32:02;16.83;;;10.97;;
39218;SDS011;24934;52.752;6.964;2022-12-29T08:34:27;16.27;;;10.90;;
39218;SDS011;24934;52.752;6.964;2022-12-29T08:36:55;16.53;;;11.33;;
39218;SDS011;24934;52.752;6.964;2022-12-29T08:39:21;18.63;;;10.20;;
39218;SDS011;24934;52.752;6.964;2022-12-29T08:41:46;13.53;;;11.17;;
39218;SDS011;24934;52.752;6.964;2022-12-29T08:44:12;17.13;;;10.80;;
39218;SDS011;24934;52.752;6.964;2022-12-29T08:46:38;13.37;;;10.93;;
39218;SDS011;24934;52.752;6.964;2022-12-29T08:49:03;14.63;;;10.33;;
39218;SDS011;24934;52.752;6.964;2022-12-29T08:51:29;16.83;;;11.10;;
39218;SDS011;24934;52.752;6.964;2022-12-29T08:53:55;17.87;;;11.27;;
39218;SDS011;24934;52.752;6.964;2022-12-29T08:56:21;12.43;;;10.23;;
39218;SDS011;24934;52.752;6.964;2022-12-29T08:58:48;12.83;;;10.03;;
39218;SDS011;24934;52.752;6.964;2022-12-29T09:01:15;11.43;;;10.27;;
39218;SDS011;24934;52.752;6.964;2022-12-29T09:03:40;14.90;;;9.87;;
39218;SDS011;24934;52.752;6.964;2022-12-29T09:06:06;12.13;;;10.20;;
39218;SDS011;24934;52.752;6.964;2022-12-29T09:08:32;14.90;;;11.03;;
39218;SDS011;24934;52.752;6.964;2022-12-29T09:11:11;12.47;;;10.13;;
39218;SDS011;24934;52.752;6.964;2022-12-29T09:13:39;12.30;;;10.60;;
39218;SDS011;24934;52.752;6.964;2022-12-29T09:16:05;14.43;;;10.30;;
39218;SDS011;24934;52.752;6.964;2022-12-29T09:18:31;13.77;;;10.17;;
39218;SDS011;24934;52.752;6.964;2022-12-29T09:20:58;11.40;;;10.00;;
39218;SDS011;24934;52.752;6.964;2022-12-29T09:23:25;11.77;;;10.67;;
39218;SDS011;24934;52.752;6.964;2022-12-29T09:25:51;13.77;;;11.00;;
39218;SDS011;24934;52.752;6.964;2022-12-29T09:28:17;12.23;;;11.10;;
39218;SDS011;24934;52.752;6.964;2022-12-29T09:30:43;16.10;;;10.93;;
39218;SDS011;24934;52.752;6.964;2022-12-29T09:33:09;15.43;;;11.70;;
39218;SDS011;24934;52.752;6.964;2022-12-29T09:35:34;15.60;;;11.47;;
39218;SDS011;24934;52.752;6.964;2022-12-29T09:38:00;13.47;;;11.20;;
39218;SDS011;24934;52.752;6.964;2022-12-29T09:40:27;14.37;;;11.20;;
39218;SDS011;24934;52.752;6.964;2022-12-29T09:43:00;14.03;;;11.23;;
39218;SDS011;24934;52.752;6.964;2022-12-29T09:46:08;18.03;;;14.47;;
39218;SDS011;24934;52.752;6.964;2022-12-29T09:48:47;18.80;;;14.60;;
39218;SDS011;24934;52.752;6.964;2022-12-29T09:51:18;18.53;;;14.93;;
39218;SDS011;24934;52.752;6.964;2022-12-29T09:53:57;21.43;;;15.03;;
39218;SDS011;24934;52.752;6.964;2022-12-29T09:56:28;18.57;;;14.53;;
39218;SDS011;24934;52.752;6.964;2022-12-29T09:59:02;18.43;;;13.90;;
39218;SDS011;24934;52.752;6.964;2022-12-29T10:04:08;14.00;;;12.57;;
39218;SDS011;24934;52.752;6.964;2022-12-29T10:06:39;18.40;;;13.90;;
39218;SDS011;24934;52.752;6.964;2022-12-29T10:23:05;14.33;;;12.23;;
39218;SDS011;24934;52.752;6.964;2022-12-29T10:25:45;14.00;;;12.50;;
39218;SDS011;24934;52.752;6.964;2022-12-29T10:28:16;18.67;;;12.67;;
39218;SDS011;24934;52.752;6.964;2022-12-29T10:30:48;15.67;;;12.17;;
39218;SDS011;24934;52.752;6.964;2022-12-29T10:33:19;14.53;;;12.57;;
39218;SDS011;24934;52.752;6.964;2022-12-29T10:35:52;19.67;;;12.73;;
39218;SDS011;24934;52.752;6.964;2022-12-29T10:40:58;16.33;;;12.67;;
39218;SDS011;24934;52.752;6.964;2022-12-29T10:43:32;18.07;;;13.60;;
39218;SDS011;24934;52.752;6.964;2022-12-29T10:46:05;19.33;;;13.20;;
39218;SDS011;24934;52.752;6.964;2022-12-29T10:48:36;17.20;;;13.20;;
39218;SDS011;24934;52.752;6.964;2022-12-29T10:51:02;22.03;;;15.17;;
39218;SDS011;24934;52.752;6.964;2022-12-29T10:53:44;20.80;;;15.33;;
39218;SDS011;24934;52.752;6.964;2022-12-29T10:56:28;21.37;;;15.50;;
39218;SDS011;24934;52.752;6.964;2022-12-29T10:58:59;16.97;;;15.17;;
39218;SDS011;24934;52.752;6.964;2022-12-29T11:01:37;21.53;;;16.10;;
39218;SDS011;24934;52.752;6.964;2022-12-29T11:07:09;20.03;;;16.10;;
39218;SDS011;24934;52.752;6.964;2022-12-29T11:09:36;17.30;;;15.23;;
39218;SDS011;24934;52.752;6.964;2022-12-29T11:12:26;20.23;;;15.70;;
39218;SDS011;24934;52.752;6.964;2022-12-29T11:17:43;19.87;;;16.60;;
39218;SDS011;24934;52.752;6.964;2022-12-29T11:22:55;24.50;;;15.93;;
39218;SDS011;24934;52.752;6.964;2022-12-29T11:25:20;21.50;;;16.40;;
39218;SDS011;24934;52.752;6.964;2022-12-29T11:28:03;20.47;;;16.70;;
39218;SDS011;24934;52.752;6.964;2022-12-29T11:30:40;19.60;;;16.77;;
39218;SDS011;24934;52.752;6.964;2022-12-29T11:33:05;19.93;;;16.23;;
39218;SDS011;24934;52.752;6.964;2022-12-29T11:35:33;18.13;;;16.13;;
39218;SDS011;24934;52.752;6.964;2022-12-29T11:38:11;21.93;;;16.57;;
39218;SDS011;24934;52.752;6.964;2022-12-29T11:40:44;19.43;;;16.60;;
39218;SDS011;24934;52.752;6.964;2022-12-29T11:43:13;20.97;;;16.60;;
39218;SDS011;24934;52.752;6.964;2022-12-29T11:46:02;18.60;;;16.70;;
39218;SDS011;24934;52.752;6.964;2022-12-29T11:48:48;19.03;;;16.97;;
39218;SDS011;24934;52.752;6.964;2022-12-29T11:51:21;18.80;;;16.80;;
39218;SDS011;24934;52.752;6.964;2022-12-29T11:53:52;22.03;;;16.50;;
39218;SDS011;24934;52.752;6.964;2022-12-29T11:56:30;20.47;;;17.47;;
39218;SDS011;24934;52.752;6.964;2022-12-29T11:58:57;20.87;;;18.77;;
39218;SDS011;24934;52.752;6.964;2022-12-29T12:01:26;24.60;;;19.00;;
39218;SDS011;24934;52.752;6.964;2022-12-29T12:04:15;21.47;;;17.67;;
39218;SDS011;24934;52.752;6.964;2022-12-29T12:06:44;24.90;;;16.97;;
39218;SDS011;24934;52.752;6.964;2022-12-29T12:09:33;20.90;;;16.20;;
39218;SDS011;24934;52.752;6.964;2022-12-29T12:12:01;22.83;;;17.00;;
39218;SDS011;24934;52.752;6.964;2022-12-29T12:14:38;18.53;;;15.87;;
39218;SDS011;24934;52.752;6.964;2022-12-29T12:17:16;22.17;;;16.50;;
39218;SDS011;24934;52.752;6.964;2022-12-29T12:19:53;18.73;;;15.97;;
39218;SDS011;24934;52.752;6.964;2022-12-29T12:22:26;27.70;;;16.17;;
39218;SDS011;24934;52.752;6.964;2022-12-29T12:27:39;15.73;;;14.30;;
39218;SDS011;24934;52.752;6.964;2022-12-29T12:30:15;20.70;;;14.70;;
39218;SDS011;24934;52.752;6.964;2022-12-29T12:35:27;21.47;;;13.80;;
39218;SDS011;24934;52.752;6.964;2022-12-29T12:41:38;19.77;;;14.50;;
39218;SDS011;24934;52.752;6.964;2022-12-29T12:44:00;18.83;;;14.57;;
39218;SDS011;24934;52.752;6.964;2022-12-29T12:58:17;19.07;;;13.90;;
39218;SDS011;24934;52.752;6.964;2022-12-29T13:06:26;23.00;;;14.00;;
39218;SDS011;24934;52.752;6.964;2022-12-29T13:09:08;20.77;;;14.17;;
39218;SDS011;24934;52.752;6.964;2022-12-29T13:17:46;18.50;;;14.20;;
39218;SDS011;24934;52.752;6.964;2022-12-29T13:23:14;20.30;;;14.07;;
39218;SDS011;24934;52.752;6.964;2022-12-29T13:25:49;21.30;;;14.20;;
39218;SDS011;24934;52.752;6.964;2022-12-29T13:28:27;23.93;;;14.47;;
39218;SDS011;24934;52.752;6.964;2022-12-29T13:31:04;20.67;;;14.20;;
39218;SDS011;24934;52.752;6.964;2022-12-29T13:33:56;21.97;;;14.47;;
39218;SDS011;24934;52.752;6.964;2022-12-29T13:36:44;23.47;;;15.10;;
39218;SDS011;24934;52.752;6.964;2022-12-29T13:41:56;18.83;;;14.70;;
39218;SDS011;24934;52.752;6.964;2022-12-29T13:44:23;19.23;;;14.47;;
39218;SDS011;24934;52.752;6.964;2022-12-29T13:46:55;20.43;;;13.83;;
39218;SDS011;24934;52.752;6.964;2022-12-29T13:49:23;29.47;;;15.63;;
39218;SDS011;24934;52.752;6.964;2022-12-29T13:51:51;24.27;;;14.47;;
39218;SDS011;24934;52.752;6.964;2022-12-29T13:54:29;23.67;;;14.57;;
39218;SDS011;24934;52.752;6.964;2022-12-29T14:00:16;24.90;;;15.00;;
39218;SDS011;24934;52.752;6.964;2022-12-29T14:08:11;22.70;;;15.10;;
39218;SDS011;24934;52.752;6.964;2022-12-29T14:10:49;25.93;;;14.80;;
39218;SDS011;24934;52.752;6.964;2022-12-29T14:13:17;21.90;;;14.87;;
39218;SDS011;24934;52.752;6.964;2022-12-29T14:15:53;21.53;;;14.70;;
39218;SDS011;24934;52.752;6.964;2022-12-29T14:23:49;19.37;;;14.60;;
39218;SDS011;24934;52.752;6.964;2022-12-29T14:28:56;30.30;;;15.33;;
39218;SDS011;24934;52.752;6.964;2022-12-29T14:36:35;27.73;;;15.30;;
39218;SDS011;24934;52.752;6.964;2022-12-29T14:42:04;27.37;;;14.87;;
39218;SDS011;24934;52.752;6.964;2022-12-29T14:44:34;21.93;;;14.97;;
39218;SDS011;24934;52.752;6.964;2022-12-29T14:47:13;20.57;;;14.17;;
39218;SDS011;24934;52.752;6.964;2022-12-29T14:49:50;22.67;;;14.57;;
39218;SDS011;24934;52.752;6.964;2022-12-29T14:52:20;23.90;;;14.90;;
39218;SDS011;24934;52.752;6.964;2022-12-29T14:57:42;25.23;;;16.17;;
39218;SDS011;24934;52.752;6.964;2022-12-29T15:02:50;20.57;;;14.57;;
39218;SDS011;24934;52.752;6.964;2022-12-29T15:08:05;28.83;;;14.63;;
39218;SDS011;24934;52.752;6.964;2022-12-29T15:10:45;21.13;;;13.73;;
39218;SDS011;24934;52.752;6.964;2022-12-29T15:13:23;20.63;;;14.10;;
39218;SDS011;24934;52.752;6.964;2022-12-29T15:15:50;20.70;;;13.67;;
39218;SDS011;24934;52.752;6.964;2022-12-29T15:20:50;26.07;;;14.57;;
39218;SDS011;24934;52.752;6.964;2022-12-29T15:23:27;24.33;;;14.53;;
39218;SDS011;24934;52.752;6.964;2022-12-29T15:26:06;21.90;;;13.97;;
39218;SDS011;24934;52.752;6.964;2022-12-29T15:28:37;22.07;;;13.90;;
39218;SDS011;24934;52.752;6.964;2022-12-29T15:31:11;19.47;;;13.30;;
39218;SDS011;24934;52.752;6.964;2022-12-29T15:33:55;22.73;;;14.10;;
39218;SDS011;24934;52.752;6.964;2022-12-29T15:36:28;20.93;;;14.30;;
39218;SDS011;24934;52.752;6.964;2022-12-29T15:39:01;26.73;;;13.73;;
39218;SDS011;24934;52.752;6.964;2022-12-29T15:42:03;22.13;;;12.90;;
39218;SDS011;24934;52.752;6.964;2022-12-29T15:44:49;36.73;;;22.33;;
39218;SDS011;24934;52.752;6.964;2022-12-29T15:47:17;24.57;;;13.87;;
39218;SDS011;24934;52.752;6.964;2022-12-29T15:49:43;23.27;;;15.10;;
39218;SDS011;24934;52.752;6.964;2022-12-29T15:52:13;27.83;;;14.80;;
39218;SDS011;24934;52.752;6.964;2022-12-29T15:54:44;26.20;;;15.93;;
39218;SDS011;24934;52.752;6.964;2022-12-29T15:57:36;20.60;;;12.40;;
39218;SDS011;24934;52.752;6.964;2022-12-29T16:00:03;19.63;;;12.80;;
39218;SDS011;24934;52.752;6.964;2022-12-29T16:02:46;36.90;;;23.57;;
39218;SDS011;24934;52.752;6.964;2022-12-29T16:05:18;25.47;;;14.90;;
39218;SDS011;24934;52.752;6.964;2022-12-29T16:07:53;27.20;;;15.13;;
39218;SDS011;24934;52.752;6.964;2022-12-29T16:10:32;26.80;;;15.20;;
39218;SDS011;24934;52.752;6.964;2022-12-29T16:13:19;26.30;;;16.10;;
39218;SDS011;24934;52.752;6.964;2022-12-29T16:15:47;22.10;;;16.20;;
39218;SDS011;24934;52.752;6.964;2022-12-29T16:18:20;25.83;;;15.30;;
39218;SDS011;24934;52.752;6.964;2022-12-29T16:20:50;19.37;;;14.60;;
39218;SDS011;24934;52.752;6.964;2022-12-29T16:23:22;20.87;;;14.60;;
39218;SDS011;24934;52.752;6.964;2022-12-29T16:25:51;20.10;;;14.27;;
39218;SDS011;24934;52.752;6.964;2022-12-29T16:28:23;22.03;;;14.93;;
39218;SDS011;24934;52.752;6.964;2022-12-29T16:30:58;17.87;;;14.73;;
39218;SDS011;24934;52.752;6.964;2022-12-29T16:34:10;24.73;;;16.57;;
39218;SDS011;24934;52.752;6.964;2022-12-29T16:36:26;29.23;;;19.63;;
39218;SDS011;24934;52.752;6.964;2022-12-29T16:39:18;23.73;;;15.30;;
39218;SDS011;24934;52.752;6.964;2022-12-29T16:42:01;17.10;;;15.17;;
39218;SDS011;24934;52.752;6.964;2022-12-29T16:44:46;20.53;;;15.47;;
39218;SDS011;24934;52.752;6.964;2022-12-29T16:47:17;17.23;;;15.10;;
39218;SDS011;24934;52.752;6.964;2022-12-29T16:49:48;16.37;;;14.77;;
39218;SDS011;24934;52.752;6.964;2022-12-29T16:52:21;14.83;;;13.23;;
39218;SDS011;24934;52.752;6.964;2022-12-29T16:54:56;16.10;;;14.30;;
39218;SDS011;24934;52.752;6.964;2022-12-29T16:57:30;14.53;;;13.03;;
39218;SDS011;24934;52.752;6.964;2022-12-29T17:00:03;14.80;;;13.20;;
39218;SDS011;24934;52.752;6.964;2022-12-29T17:02:31;15.30;;;13.87;;